createdAt,value
2018-07-20T00:01:41.695Z,85.30
2018-07-20T00:04:11.899Z,85.60
2018-07-20T00:06:41.968Z,85.50
2018-07-20T00:09:12.079Z,85.30
2018-07-20T00:11:42.532Z,85.40
2018-07-20T00:14:13.931Z,85.60
2018-07-20T00:16:43.654Z,85.80
2018-07-20T00:19:13.168Z,86.00
2018-07-20T00:21:44.626Z,87.30
2018-07-20T00:24:15.090Z,87.10
2018-07-20T00:26:44.734Z,86.30
2018-07-20T00:29:14.950Z,86.20
2018-07-20T00:31:44.994Z,86.00
2018-07-20T00:34:17.057Z,86.20
2018-07-20T00:36:46.985Z,86.30
2018-07-20T00:39:16.239Z,86.50
2018-07-20T00:41:45.972Z,86.80
2018-07-20T00:44:15.124Z,86.90
2018-07-20T00:46:44.578Z,87.10
2018-07-20T00:49:14.202Z,87.20
2018-07-20T00:51:43.792Z,88.50
2018-07-20T00:54:14.590Z,88.90
2018-07-20T00:56:44.470Z,88.70
2018-07-20T00:59:13.107Z,87.90
2018-07-20T01:01:42.902Z,87.80
2018-07-20T01:04:13.044Z,87.80
2018-07-20T01:06:43.893Z,87.90
2018-07-20T01:09:13.904Z,87.80
2018-07-20T01:11:44.391Z,88.80
2018-07-20T01:14:15.423Z,88.10
2018-07-20T01:16:45.105Z,88.10
2018-07-20T01:19:16.464Z,88.20
2018-07-20T01:21:47.404Z,88.10
2018-07-20T01:24:17.839Z,89.10
2018-07-20T01:26:48.841Z,89.60
2018-07-20T01:29:20.077Z,89.90
2018-07-20T01:31:50.725Z,90.00
2018-07-20T01:34:22.592Z,89.10
2018-07-20T01:36:53.560Z,89.60
2018-07-20T01:39:23.704Z,89.60
2018-07-20T01:41:52.993Z,89.60
2018-07-20T01:44:22.891Z,89.70
2018-07-20T01:46:52.720Z,89.40
2018-07-20T01:49:24.202Z,89.60
2018-07-20T01:51:55.590Z,90.10
2018-07-20T01:54:26.010Z,90.30
2018-07-20T01:56:55.584Z,90.60
2018-07-20T01:59:24.805Z,90.00
2018-07-20T02:01:55.015Z,89.80
2018-07-20T02:04:24.659Z,89.70
2018-07-20T02:06:53.924Z,89.80
2018-07-20T02:09:25.817Z,89.80
2018-07-20T02:11:57.131Z,89.50
2018-07-20T02:14:28.163Z,89.20
2018-07-20T02:16:57.773Z,89.30
2018-07-20T02:19:27.500Z,89.10
2018-07-20T02:21:58.070Z,88.90
2018-07-20T02:24:27.679Z,88.60
2018-07-20T02:26:57.661Z,88.30
2018-07-20T02:29:27.218Z,87.70
2018-07-20T02:31:57.504Z,88.00
2018-07-20T02:34:29.505Z,88.80
2018-07-20T02:37:00.760Z,88.20
2018-07-20T02:39:31.161Z,87.70
2018-07-20T02:42:01.155Z,88.00
2018-07-20T02:44:31.749Z,89.00
2018-07-20T02:47:03.157Z,88.90
2018-07-20T02:49:32.551Z,88.10
2018-07-20T02:52:06.465Z,87.50
2018-07-20T02:54:35.686Z,87.50
2018-07-20T02:57:04.947Z,87.60
2018-07-20T02:59:36.406Z,86.80
2018-07-20T03:02:07.440Z,86.50
2018-07-20T03:04:37.434Z,86.60
2018-07-20T03:07:07.591Z,86.30
2018-07-20T03:09:38.123Z,87.40
2018-07-20T03:12:08.580Z,87.90
2018-07-20T03:14:39.501Z,87.90
2018-07-20T03:17:09.412Z,87.20
2018-07-20T03:19:39.425Z,87.60
2018-07-20T03:22:09.864Z,86.90
2018-07-20T03:24:40.588Z,86.90
2018-07-20T03:27:11.459Z,87.30
2018-07-20T03:29:42.557Z,87.30
2018-07-20T03:32:16.631Z,87.30
2018-07-20T03:34:48.316Z,86.90
2018-07-20T03:37:18.672Z,88.80
2018-07-20T03:39:48.706Z,88.60
2018-07-20T03:42:19.540Z,86.90
2018-07-20T03:44:50.839Z,86.80
2018-07-20T03:47:21.564Z,86.50
2018-07-20T03:49:51.694Z,85.70
2018-07-20T03:52:23.722Z,84.50
2018-07-20T03:54:54.675Z,84.10
2018-07-20T03:57:24.398Z,83.70
2018-07-20T03:59:53.788Z,83.30
2018-07-20T04:02:22.928Z,84.00
2018-07-20T04:04:52.632Z,83.50
2018-07-20T04:07:23.722Z,83.10
2018-07-20T04:09:53.640Z,82.60
2018-07-20T04:12:23.172Z,82.90
2018-07-20T04:14:57.288Z,82.30
2018-07-20T04:17:30.420Z,82.90
2018-07-20T04:19:59.569Z,83.70
2018-07-20T04:22:30.221Z,83.60
2018-07-20T04:25:01.151Z,83.60
2018-07-20T04:27:31.659Z,83.50
2018-07-20T04:30:01.320Z,83.50
2018-07-20T04:32:32.948Z,83.60
2018-07-20T04:35:10.720Z,84.60
2018-07-20T04:37:40.347Z,84.30
2018-07-20T04:40:09.621Z,84.70
2018-07-20T04:42:40.138Z,84.70
2018-07-20T04:45:09.731Z,83.90
2018-07-20T04:47:40.289Z,84.50
2018-07-20T04:50:09.764Z,84.60
2018-07-20T04:52:39.735Z,84.90
2018-07-20T04:55:08.753Z,84.10
2018-07-20T04:57:38.447Z,83.40
2018-07-20T05:00:08.526Z,82.70
2018-07-20T05:02:40.426Z,81.90
2018-07-20T05:05:10.545Z,81.50
2018-07-20T05:07:45.108Z,81.20
2018-07-20T05:10:14.578Z,81.40
2018-07-20T05:12:45.496Z,81.20
2018-07-20T05:15:17.543Z,80.90
2018-07-20T05:17:48.243Z,80.60
2018-07-20T05:20:18.440Z,80.10
2018-07-20T05:22:48.387Z,79.60
2018-07-20T05:25:19.268Z,79.40
2018-07-20T05:27:50.175Z,77.80
2018-07-20T05:30:19.605Z,76.70
2018-07-20T05:32:48.964Z,75.40
2018-07-20T05:35:19.749Z,75.50
2018-07-20T05:37:49.421Z,75.80
2018-07-20T05:40:18.625Z,75.00
2018-07-20T05:42:48.353Z,75.00
2018-07-20T05:45:20.013Z,74.50
2018-07-20T05:47:50.197Z,74.00
2018-07-20T05:50:20.110Z,73.60
2018-07-20T05:52:51.212Z,73.90
2018-07-20T05:55:21.995Z,72.80
2018-07-20T05:57:53.499Z,72.40
2018-07-20T06:00:24.450Z,71.00
2018-07-20T06:02:54.438Z,70.20
2018-07-20T06:05:25.075Z,70.50
2018-07-20T06:07:56.211Z,70.60
2018-07-20T06:10:27.411Z,69.80
2018-07-20T06:12:56.431Z,60.80
2018-07-20T06:15:26.207Z,62.70
2018-07-20T06:17:57.366Z,59.70
2018-07-20T06:20:28.414Z,57.90
2018-07-20T06:22:59.092Z,57.90
2018-07-20T06:25:29.471Z,55.80
2018-07-20T06:27:58.958Z,56.50
2018-07-20T06:30:29.073Z,57.20
2018-07-20T06:32:58.102Z,57.00
2018-07-20T06:35:34.060Z,56.10
2018-07-20T06:38:05.710Z,55.80
2018-07-20T06:40:36.455Z,55.90
2018-07-20T06:43:06.134Z,57.60
2018-07-20T06:45:36.195Z,56.60
2018-07-20T06:48:06.365Z,56.00
2018-07-20T06:50:35.734Z,55.90
2018-07-20T06:53:05.024Z,56.10
2018-07-20T06:55:35.327Z,56.20
2018-07-20T06:58:04.296Z,58.70
2018-07-20T07:00:33.225Z,56.70
2018-07-20T07:03:03.497Z,56.80
2018-07-20T07:05:33.345Z,57.80
2018-07-20T07:08:02.988Z,56.10
2018-07-20T07:10:32.574Z,56.90
2018-07-20T07:13:02.104Z,56.30
2018-07-20T07:15:31.527Z,55.70
2018-07-20T07:18:02.505Z,56.10
2018-07-20T07:20:32.832Z,55.00
2018-07-20T07:23:04.364Z,54.00
2018-07-20T07:25:36.430Z,54.30
2018-07-20T07:28:07.999Z,54.50
2018-07-20T07:30:37.621Z,54.20
2018-07-20T07:33:07.380Z,53.60
2018-07-20T07:35:40.412Z,53.40
2018-07-20T07:38:11.933Z,52.80
2018-07-20T07:40:43.122Z,53.40
2018-07-20T07:43:14.749Z,55.60
2018-07-20T07:45:45.405Z,53.50
2018-07-20T07:48:22.262Z,52.40
2018-07-20T07:54:18.363Z,51.80
2018-07-20T07:56:50.095Z,51.50
2018-07-20T07:59:25.401Z,50.90
2018-07-20T08:01:56.452Z,51.20
2018-07-20T08:04:26.701Z,50.50
2018-07-20T08:06:56.733Z,50.10
2018-07-20T08:09:27.403Z,51.30
2018-07-20T08:11:58.628Z,51.20
2018-07-20T08:14:30.186Z,51.90
2018-07-20T08:17:01.184Z,49.30
2018-07-20T08:19:32.316Z,49.30
2018-07-20T08:22:02.047Z,49.40
2018-07-20T08:24:32.569Z,48.50
2018-07-20T08:27:01.545Z,48.50
2018-07-20T08:29:32.872Z,48.80
2018-07-20T08:32:02.386Z,48.80
2018-07-20T08:34:33.443Z,48.00
2018-07-20T08:37:04.447Z,48.40
2018-07-20T08:39:34.876Z,47.70
2018-07-20T08:42:04.945Z,47.00
2018-07-20T08:44:36.461Z,46.90
2018-07-20T08:47:06.872Z,46.70
2018-07-20T08:49:36.573Z,45.90
2018-07-20T08:52:05.417Z,45.60
2018-07-20T08:54:38.600Z,46.70
2018-07-20T08:57:07.307Z,46.00
2018-07-20T08:59:38.323Z,45.90
2018-07-20T09:02:08.334Z,45.90
2018-07-20T09:04:38.534Z,45.70
2018-07-20T09:07:07.624Z,44.30
2018-07-20T09:09:39.586Z,43.80
2018-07-20T09:12:10.001Z,45.00
2018-07-20T09:14:41.627Z,45.00
2018-07-20T09:17:13.428Z,41.80
2018-07-20T09:19:43.897Z,42.00
2018-07-20T09:22:14.748Z,42.90
2018-07-20T09:24:46.808Z,42.80
2018-07-20T09:27:18.165Z,40.70
2018-07-20T09:29:50.575Z,43.10
2018-07-20T09:32:21.375Z,41.90
2018-07-20T09:34:52.491Z,42.00
2018-07-20T09:37:22.758Z,42.70
2018-07-20T09:39:54.139Z,43.60
2018-07-20T09:42:24.294Z,42.60
2018-07-20T09:44:54.899Z,43.20
2018-07-20T09:47:25.229Z,43.50
2018-07-20T09:49:57.174Z,43.90
2018-07-20T09:52:27.256Z,44.00
2018-07-20T09:54:57.916Z,43.80
2018-07-20T09:57:29.058Z,43.60
2018-07-20T09:59:58.597Z,43.90
2018-07-20T10:02:28.446Z,43.50
2018-07-20T10:04:58.505Z,43.50
2018-07-20T10:07:29.365Z,43.50
2018-07-20T10:10:00.299Z,43.60
2018-07-20T10:12:31.068Z,43.00
2018-07-20T10:15:02.091Z,42.80
2018-07-20T10:17:32.303Z,42.40
2018-07-20T10:20:02.928Z,43.20
2018-07-20T10:22:33.654Z,43.30
2018-07-20T10:25:05.260Z,43.00
2018-07-20T10:27:36.437Z,43.70
2018-07-20T10:30:07.864Z,41.70
2018-07-20T10:32:39.700Z,39.40
2018-07-20T10:35:09.361Z,39.60
2018-07-20T10:37:40.391Z,39.80
2018-07-20T15:41:53.705Z,47.90
2018-07-20T18:37:34.445Z,52.60
2018-07-20T18:40:04.325Z,52.50
2018-07-20T19:00:34.587Z,55.70
2018-07-20T19:03:04.829Z,55.90
2018-07-20T19:11:40.800Z,59.30
2018-07-20T19:14:12.057Z,59.60
2018-07-20T19:22:48.379Z,57.90
2018-07-20T19:25:20.348Z,58.40
2018-07-20T19:27:51.047Z,57.70
2018-07-20T19:30:23.351Z,58.80
2018-07-20T19:32:54.982Z,58.80
2018-07-20T19:35:25.588Z,59.20
2018-07-20T19:37:55.836Z,59.80
2018-07-20T19:47:23.507Z,57.50
2018-07-20T19:49:56.361Z,59.30
2018-07-20T19:52:28.472Z,59.40
2018-07-20T19:54:58.476Z,59.30
2018-07-20T19:57:30.255Z,59.30
2018-07-20T20:00:00.614Z,59.70
2018-07-20T20:02:32.927Z,60.40
2018-07-20T20:05:04.921Z,62.40
2018-07-20T20:07:52.789Z,61.50
2018-07-20T20:10:24.265Z,61.40
2018-07-20T20:12:54.960Z,62.20
2018-07-20T20:15:24.785Z,62.40
2018-07-20T20:17:56.973Z,62.90
2018-07-20T20:20:28.432Z,63.10
2018-07-20T20:23:00.826Z,63.50
2018-07-20T20:25:33.041Z,64.10
2018-07-20T20:34:01.678Z,65.00
2018-07-20T20:36:33.040Z,64.90
2018-07-20T20:39:05.184Z,64.80
2018-07-20T20:41:34.728Z,65.00
2018-07-20T20:44:05.841Z,64.50
2018-07-20T20:46:37.388Z,64.80
2018-07-20T20:49:08.099Z,65.10
2018-07-20T20:51:40.134Z,65.30
2018-07-20T20:54:27.216Z,65.50
2018-07-20T20:56:57.863Z,65.50
2018-07-20T20:59:27.351Z,65.80
2018-07-20T21:01:57.109Z,65.80
2018-07-20T21:04:28.988Z,66.10
2018-07-20T21:07:01.297Z,66.70
2018-07-20T21:09:31.503Z,66.90
2018-07-20T21:12:03.645Z,67.40
2018-07-20T21:17:27.445Z,68.60
2018-07-20T21:19:58.354Z,69.60
2018-07-20T21:22:32.252Z,70.30
2018-07-20T21:25:04.289Z,71.00
2018-07-20T21:27:35.887Z,71.90
2018-07-20T21:30:07.951Z,72.30
2018-07-20T21:32:39.317Z,73.10
2018-07-20T21:35:09.552Z,73.80
2018-07-20T21:37:45.880Z,74.50
2018-07-20T21:40:16.997Z,75.00
2018-07-20T21:42:48.614Z,76.40
2018-07-20T21:45:19.516Z,76.50
2018-07-20T21:47:59.261Z,77.40
2018-07-20T21:50:29.407Z,78.20
2018-07-20T21:52:59.825Z,79.00
2018-07-20T21:55:30.559Z,79.90
2018-07-20T21:58:00.242Z,80.80
2018-07-20T22:00:32.029Z,81.10
2018-07-20T22:03:03.683Z,82.30
2018-07-20T22:05:34.457Z,83.50
2018-07-20T22:08:10.589Z,84.50
2018-07-20T22:10:43.343Z,85.40
2018-07-20T22:13:15.173Z,86.30
2018-07-20T22:15:45.230Z,86.50
2018-07-20T22:18:16.357Z,87.10
2018-07-20T22:20:47.844Z,87.70
2018-07-20T22:23:19.399Z,88.30
2018-07-20T22:25:50.912Z,89.00
2018-07-20T22:28:26.180Z,89.40
2018-07-20T22:30:56.259Z,90.00
2018-07-20T22:33:26.503Z,90.30
2018-07-20T22:35:57.456Z,90.40
2018-07-20T22:38:29.259Z,90.80
2018-07-20T22:40:59.902Z,91.40
2018-07-20T22:43:31.151Z,91.60
2018-07-20T22:46:02.843Z,91.70
2018-07-20T22:53:00.105Z,91.90
2018-07-20T22:55:31.810Z,92.30
2018-07-20T22:58:03.743Z,92.80
2018-07-20T23:00:33.964Z,93.10
2018-07-20T23:03:05.491Z,93.30
2018-07-20T23:05:37.311Z,93.60
2018-07-20T23:08:07.657Z,93.80
2018-07-20T23:10:39.064Z,93.90
2018-07-20T23:13:12.053Z,94.00
2018-07-20T23:15:43.254Z,94.30
2018-07-20T23:18:14.566Z,94.60
2018-07-20T23:20:45.578Z,94.60
2018-07-20T23:23:17.085Z,95.00
2018-07-20T23:25:48.882Z,95.30
2018-07-20T23:28:20.261Z,95.40
2018-07-20T23:30:52.167Z,95.70
2018-07-20T23:33:24.796Z,95.90
2018-07-20T23:35:57.037Z,95.80
2018-07-20T23:38:29.318Z,95.70
2018-07-20T23:40:59.296Z,95.60
2018-07-20T23:43:29.232Z,95.50
2018-07-20T23:46:01.520Z,95.40
2018-07-20T23:48:31.210Z,95.40
2018-07-20T23:51:01.123Z,95.30
2018-07-20T23:56:32.787Z,95.30
2018-07-20T23:59:04.245Z,95.30
